Pilgrims Pride Corp (PPC) Latest Bloomsberg Price


Mffais Ranking #2451 Overall / #27 Industry
Industry: Packaged Food

Number of Companies: 178 (Ranking #943 Overall/#21 Industry)
Inflow: $ 69,986 (K) (Ranking #1149 Overall/#22 Industry)
Outflow: $ -155,177 (K)
Mffais Flow: $ -85,190 (K) (Ranking #2451 Overall/#27 Industry)


Receive a FREE weekly executive review of stocks moving into the top 10, taking the top industy spot or moving up within their industry. Sent directly to your Inbox every Saturday. Sign up today and get last week's review immediately sent to you.

We value and respect your privacy. Please read our Terms and Conditions which states our firm commitment to your privacy. Your email address will not be shared with a third party, nor will it be sold or used for purposes other than subscription for the weekly review.

Owner CPOR Shares Action Qty Chg Invested (K) Total Current Value (K)
Brandywine Global Investment Management Llc 2016-09-30 746,065 Added More 513,708 $ 13,094 $ 19,017
Denali Advisors Llc 2016-09-30 856,310 Added More 286,910 $ 7,313 $ 21,827
Hussman Strategic Advisors Inc 2016-09-30 250,000 New Holding 250,000 $ 6,372 $ 6,372
Cornerstone Capital Management Holdings Llc 2016-09-30 734,669 Added More 242,097 $ 6,171 $ 18,726
Lord Abbett Co Llc 2016-09-30 172,400 New Holding 172,400 $ 4,394 $ 4,394
Meritage Portfolio Management 2016-09-30 115,990 New Holding 115,990 $ 2,956 $ 2,956
Bluecrest Capital Management Ltd 2016-09-30 80,835 New Holding 80,835 $ 2,060 $ 2,060
Baring Asset Management Ltd 2016-09-30 133,972 Added More 77,991 $ 1,987 $ 3,414
Commonwealth Bank Of Australia 2016-09-30 253,543 Added More 73,239 $ 1,866 $ 6,462
Capital Fund Management S A 2016-09-30 225,447 Added More 68,622 $ 1,749 $ 5,746
Harvest Capital Strategies Llc 2016-09-30 210,000 Added More 60,000 $ 1,529 $ 5,352
New York State Common Retirement Fund 2016-09-30 469,600 Added More 59,900 $ 1,526 $ 11,970
Algert Global Llc 2016-09-30 51,567 New Holding 51,567 $ 1,314 $ 1,314
Spark Investment Management Llc 2016-09-30 211,100 Added More 51,500 $ 1,312 $ 5,380
Weiss Multi-Strategy Advisers Llc 2016-09-30 49,272 New Holding 49,272 $ 1,255 $ 1,255
Indexiq Advisors Llc 2016-09-30 65,603 Added More 43,861 $ 1,118 $ 1,672
Sg Americas Securities Llc 2016-09-30 39,426 New Holding 39,426 $ 1,004 $ 1,004
Seven Eight Capital Llc 2016-09-30 33,401 New Holding 33,401 $ 851 $ 851
Clinton Group Inc 2016-09-30 32,057 New Holding 32,057 $ 817 $ 817
Aviva Plc 2016-09-30 31,600 New Holding 31,600 $ 805 $ 805
Breton Hill Capital Ltd 2016-09-30 31,050 New Holding 31,050 $ 791 $ 791
Jane Street Group Llc 2016-09-30 42,499 Added More 28,400 $ 723 $ 1,083
Point72 Asia Hong Kong Ltd 2016-09-30 22,662 New Holding 22,662 $ 577 $ 577
Tudor Investment Corp Et Al 2016-09-30 22,317 New Holding 22,317 $ 568 $ 568
Quadrature Capital Ltd 2016-09-30 22,315 New Holding 22,315 $ 568 $ 568
Hsbc Holdings Plc 2016-09-30 54,721 Added More 19,277 $ 491 $ 1,394
Pinebridge Investments L P 2016-09-30 94,735 Added More 18,994 $ 484 $ 2,414
Verition Fund Management Llc 2016-09-30 18,271 New Holding 18,271 $ 465 $ 465
Trexquant Investment Lp 2016-09-30 26,400 Added More 17,000 $ 433 $ 672
Baird Financial Group Inc 2016-09-30 152,971 Added More 16,570 $ 422 $ 3,899
Menta Capital Llc 2016-09-30 16,313 New Holding 16,313 $ 415 $ 415
Gabelli Funds Llc 2016-09-30 15,000 New Holding 15,000 $ 382 $ 382
Americafirst Capital Management Llc 2016-09-30 14,274 New Holding 14,274 $ 363 $ 363
Oppenheimer Co Inc 2016-09-30 63,898 Added More 14,105 $ 359 $ 1,628
Gsa Capital Partners Llp 2016-09-30 13,880 New Holding 13,880 $ 353 $ 353
Fulton Bank N A 2016-09-30 13,294 New Holding 13,294 $ 338 $ 338
Boothbay Fund Management Llc 2016-09-30 12,839 New Holding 12,839 $ 327 $ 327
Guggenheim Capital Llc 2016-09-30 240,130 Added More 11,648 $ 296 $ 6,120
Weiss Asset Management Lp 2016-09-30 11,176 New Holding 11,176 $ 284 $ 284
Parametrica Management Ltd 2016-09-30 10,877 New Holding 10,877 $ 277 $ 277
Fort L P 2016-09-30 38,989 Added More 9,264 $ 236 $ 993
Cubist Systematic Strategies Llc 2016-09-30 28,987 Added More 9,162 $ 233 $ 738
Zebra Capital Management Llc 2016-09-30 70,284 Added More 7,607 $ 193 $ 1,791
Aperio Group Llc 2016-09-30 37,965 Added More 7,312 $ 186 $ 967
Quantbot Technologies Lp 2016-09-30 10,632 Added More 7,108 $ 181 $ 271
Kernodle Katon Asset Management Group Llc 2016-09-30 4,532 New Holding 4,532 $ 115 $ 115
Fox Run Management L L C 2016-09-30 12,100 Added More 3,700 $ 94 $ 308
Centurylink Investment Management Co 2016-09-30 58,168 Added More 3,125 $ 79 $ 1,482
Rhumbline Advisers 2016-09-30 51,157 Added More 1,747 $ 44 $ 1,303
Blackrock Investment Management Llc 2016-09-30 30,332 Added More 1,715 $ 43 $ 773
California State Teachers Retirement System 2016-09-30 129,426 Added More 1,300 $ 33 $ 3,299
Argent Capital Management Llc 2016-09-30 14,638 Added More 1,280 $ 32 $ 373
Ifp Advisors Inc 2016-09-30 1,375 Added More 1,142 $ 29 $ 35
Harel Insurance Investments Financial Services Ltd 2016-09-30 850 Added More 570 $ 14 $ 21
Pacer Advisors Inc 2016-09-30 7,605 Added More 520 $ 13 $ 193
Cibc World Markets Inc 2016-09-30 22,831 Added More 400 $ 10 $ 581
Kanaly Trust Co 2016-09-30 283 Added More 189 $ 4 $ 7
Dynamic Capital Management Ltd 2016-09-30 92,268 Added More 98 $ 2 $ 2,351
Cutler Group Lp 2016-09-30 4,235 Added More 78 $ 1 $ 107
Proficio Capital Partners Llc 2016-09-30 82 Added More 61 $ 1 $ 2
Wealthtrust-Arizona Llc 2016-09-30 40 New Holding 40 $ 1 $ 1
Washington Trust Bank 2016-09-30 37 New Holding 37 $ 0 $ 0
Oshaughnessy Asset Management Llc 2016-09-30 264 Added More 19 $ 0 $ 6
Cls Investments Llc 2016-09-30 2 New Holding 2 $ 0 $ 0
Strategic Global Advisors Llc 2016-09-30 49,345 No Change 0 $ 0 $ 1,257
Alpha Windward Llc 2016-09-30 2,018 No Change 0 $ 0 $ 51
Focused Wealth Management Inc 2016-09-30 5,700 No Change 0 $ 0 $ 145
Sanctuary Wealth Advisors Llc 2016-09-30 1,500 No Change 0 $ 0 $ 38
Midas Management Corp 2016-09-30 5,000 No Change 0 $ 0 $ 127
Wfg Advisors Lp 2016-09-30 237 No Change 0 $ 0 $ 6
Central Trust Co 2016-09-30 209 No Change 0 $ 0 $ 5
Banco Btg Pactual S A 2016-09-30 88,113 No Change 0 $ 0 $ 2,246
Utah Retirement Systems 2016-09-30 10,700 No Change 0 $ 0 $ 272
Foundation Resource Management Inc 2016-09-30 20,727 No Change 0 $ 0 $ 528
Bridgeway Capital Management Inc 2016-09-30 1,154,500 No Change 0 $ 0 $ 29,428
Clark Estates Inc Ny 2016-09-30 120,000 No Change 0 $ 0 $ 3,058
Dreman Value Management L L C 2016-09-30 1,490 No Change 0 $ 0 $ 37
Bessemer Group Inc 2016-09-30 26,568 No Change 0 $ 0 $ 677
Umb Bank N A Mo 2016-09-30 24,851 No Change 0 $ 0 $ 633
Legal General Group Plc 2016-09-30 5,142 No Change 0 $ 0 $ 131
Bronfman E L Rothschild L P 2016-09-30 362 Sold Some -3 $ -0 $ 9
Oakworth Capital Inc 2016-09-30 2,863 Sold Some -32 $ -0 $ 72
Clarivest Asset Management Llc 2016-09-30 0 Sold All -41 $ -1 $ 0
Cadence Capital Management Llc 2016-09-30 59,118 Sold Some -42 $ -1 $ 1,506
Msi Financial Services Inc 2016-09-30 518 Sold Some -63 $ -1 $ 13
Independent Portfolio Consultants Inc 2016-09-30 1,020 Sold Some -70 $ -1 $ 26
American International Group Inc 2016-09-30 1,773 Sold Some -133 $ -3 $ 45
Springbok Capital Management Llc 2016-09-30 0 Sold All -200 $ -5 $ 0
Balasa Dinverno Foltz Llc 2016-09-30 13,261 Sold Some -341 $ -8 $ 338
New York State Teachers Retirement System 2016-09-30 5,100 Sold Some -500 $ -12 $ 129
Meeder Asset Management Inc 2016-09-30 0 Sold All -707 $ -18 $ 0
Bruderman Asset Management Llc 2016-09-30 0 Sold All -775 $ -19 $ 0
Whittier Trust Co Of Nevada Inc 2016-09-30 3,550 Sold Some -800 $ -20 $ 90
Cable Hill Partners Llc 2016-09-30 0 Sold All -949 $ -24 $ 0
Tower Research Capital Llc Trc 2016-09-30 73 Sold Some -1,218 $ -31 $ 1
Shell Asset Management Co 2016-09-30 28,592 Sold Some -1,308 $ -33 $ 728
Vident Investment Advisory Llc 2016-09-30 96,426 Sold Some -1,461 $ -37 $ 2,457
Stifel Financial Corp 2016-09-30 22,606 Sold Some -1,574 $ -40 $ 576
Sei Investments Co 2016-09-30 28,689 Sold Some -1,588 $ -40 $ 731
Commonwealth Equity Services Inc 2016-09-30 18,893 Sold Some -1,641 $ -41 $ 481
Ladenburg Thalmann Financial Services Inc 2016-09-30 1,042 Sold Some -1,770 $ -45 $ 26
Burney Co 2016-09-30 29,890 Sold Some -1,790 $ -45 $ 761
Cornerstone Financial Partners Llc 2016-09-30 9,936 Sold Some -1,835 $ -46 $ 253
Envestnet Asset Management Inc 2016-09-30 5,975 Sold Some -1,883 $ -47 $ 152
Creative Planning 2016-09-30 2,400 Sold Some -2,104 $ -53 $ 61
Berkeley Capital Partners Llc 2016-09-30 23,593 Sold Some -2,381 $ -60 $ 601
Nationwide Fund Advisors 2016-09-30 140,991 Sold Some -2,917 $ -74 $ 3,593
Cantab Capital Partners Llp 2016-09-30 81,800 Sold Some -3,045 $ -77 $ 2,085
Simplex Trading Llc 2016-09-30 749 Sold Some -3,172 $ -80 $ 19
Axa 2016-09-30 378,262 Sold Some -3,178 $ -81 $ 9,641
Cambria Investment Management L P 2016-09-30 41,413 Sold Some -3,528 $ -89 $ 1,055
Van Eck Associates Corp 2016-09-30 198,160 Sold Some -3,776 $ -96 $ 5,051
Acrospire Investment Management Llc 2016-09-30 400 Sold Some -4,200 $ -107 $ 10
Capstone Investment Advisors Llc 2016-09-30 15,300 Sold Some -6,498 $ -165 $ 389
Cibc Asset Management Inc 2016-09-30 0 Sold All -8,079 $ -205 $ 0
Pacad Investment Ltd 2016-09-30 40,431 Sold Some -8,400 $ -214 $ 1,030
Squarepoint Ops Llc 2016-09-30 21,000 Sold Some -8,900 $ -226 $ 535
Invictus Rg 2016-09-30 1,829 Sold Some -9,006 $ -229 $ 46
Walleye Trading Llc 2016-09-30 13,661 Sold Some -9,039 $ -230 $ 348
Zweig-Dimenna Associates Llc 2016-09-30 0 Sold All -9,100 $ -231 $ 0
Advisor Group Inc 2016-09-30 3,112 Sold Some -10,563 $ -269 $ 79
Two Sigma Securities Llc 2016-09-30 0 Sold All -10,702 $ -272 $ 0
Highbridge Capital Management Llc 2016-09-30 0 Sold All -10,786 $ -274 $ 0
Dimensional Fund Advisors Lp 2016-09-30 716,148 Sold Some -11,566 $ -294 $ 18,254
Bank Of Hawaii 2016-09-30 0 Sold All -12,440 $ -317 $ 0
Liberty Mutual Group Asset Management Inc 2016-09-30 0 Sold All -12,600 $ -321 $ 0
First Dallas Securities Inc 2016-09-30 0 Sold All -13,750 $ -350 $ 0
Lucus Advisors Llc 2016-09-30 0 Sold All -14,333 $ -365 $ 0
Raymond James Financial Services Advisors Inc 2016-09-30 0 Sold All -15,528 $ -395 $ 0
Alps Advisors Inc 2016-09-30 0 Sold All -16,658 $ -424 $ 0
Old National Bancorp In 2016-09-30 0 Sold All -17,468 $ -445 $ 0
Qs Investors Llc 2016-09-30 272,300 Sold Some -18,500 $ -471 $ 6,940
Soros Fund Management Llc 2016-09-30 0 Sold All -18,700 $ -476 $ 0
Usa Financial Portformulas Corp 2016-09-30 0 Sold All -18,787 $ -478 $ 0
Kcg Holdings Inc 2016-09-30 17,793 Sold Some -19,020 $ -484 $ 453
Gargoyle Investment Advisor L L C 2016-09-30 40,316 Sold Some -19,940 $ -508 $ 1,027
Us Bancorp De 2016-09-30 41,103 Sold Some -19,990 $ -509 $ 1,047
Blackrock Japan Co Ltd 2016-09-30 223,712 Sold Some -20,150 $ -513 $ 5,702
Advisors Asset Management Inc 2016-09-30 13,779 Sold Some -21,934 $ -559 $ 351
Hodges Capital Management Inc 2016-09-30 0 Sold All -22,800 $ -581 $ 0
Quantitative Investment Management Llc 2016-09-30 0 Sold All -23,500 $ -599 $ 0
Fdx Advisors Inc 2016-09-30 0 Sold All -24,007 $ -611 $ 0
Landscape Capital Management L L C 2016-09-30 0 Sold All -24,300 $ -619 $ 0
Hays Advisory Llc 2016-09-30 235,646 Sold Some -25,008 $ -637 $ 6,006
First Midwest Bank Trust Division 2016-09-30 31,660 Sold Some -26,090 $ -665 $ 807
Bayesian Capital Management Lp 2016-09-30 0 Sold All -26,105 $ -665 $ 0
Parametric Portfolio Associates Llc 2016-09-30 285,894 Sold Some -27,021 $ -688 $ 7,287
Zurcher Kantonalbank Zurich Cantonalbank 2016-09-30 1 Sold Some -27,198 $ -693 $ 0
Quotient Investors Llc 2016-09-30 19,344 Sold Some -31,935 $ -814 $ 493
Gotham Asset Management Llc 2016-09-30 364,219 Sold Some -35,987 $ -917 $ 9,283
Old Mutual Global Investors Uk Ltd 2016-09-30 0 Sold All -37,644 $ -959 $ 0
Nisa Investment Advisors Llc 2016-09-30 15,000 Sold Some -41,000 $ -1,045 $ 382
Teachers Advisors Inc 2016-09-30 167,989 Sold Some -42,530 $ -1,084 $ 4,282
Kames Capital Plc 2016-09-30 0 Sold All -42,824 $ -1,091 $ 0
Chicago Equity Partners Llc 2016-09-30 0 Sold All -45,980 $ -1,172 $ 0
U S Global Investors Inc 2016-09-30 0 Sold All -46,400 $ -1,182 $ 0
Capital One National Association 2016-09-30 0 Sold All -47,681 $ -1,215 $ 0
Northern Trust Corp 2016-09-30 538,964 Sold Some -50,942 $ -1,298 $ 13,738
Stevens Capital Management Lp 2016-09-30 49,314 Sold Some -56,047 $ -1,428 $ 1,257
C M Bidwell Associates Ltd 2016-09-30 0 Sold All -62,220 $ -1,585 $ 0
First Quadrant L P Ca 2016-09-30 13,205 Sold Some -62,700 $ -1,598 $ 336
Trimtabs Asset Management Llc 2016-09-30 1,176 Sold Some -65,056 $ -1,658 $ 29
Twin Capital Management Inc 2016-09-30 0 Sold All -66,232 $ -1,688 $ 0
Summit Street Capital Management Llc 2016-09-30 0 Sold All -75,394 $ -1,921 $ 0
Peak6 Investments L P 2016-09-30 216,500 Sold Some -99,300 $ -2,531 $ 5,518
Barings Llc 2016-09-30 0 Sold All -102,600 $ -2,615 $ 0
Sterling Capital Management Llc 2016-09-30 0 Sold All -106,612 $ -2,717 $ 0
New Amsterdam Partners Llc Ny 2016-09-30 0 Sold All -128,431 $ -3,273 $ 0
Convergence Investment Partners Llc 2016-09-30 0 Sold All -147,827 $ -3,768 $ 0
Nuveen Asset Management Llc 2016-09-30 0 Sold All -171,200 $ -4,363 $ 0
Martingale Asset Management L P 2016-09-30 218,924 Sold Some -216,023 $ -5,506 $ 5,580
Blackrock Inc 2016-09-30 634,038 Sold Some -224,799 $ -5,730 $ 16,161
Diam Co Ltd 2016-09-30 0 Sold All -246,437 $ -6,281 $ 0
Ahl Partners Llp 2016-09-30 60,363 Sold Some -318,967 $ -8,130 $ 1,538
Euclid Advisors Llc 2016-09-30 0 Sold All -342,000 $ -8,717 $ 0
Panagora Asset Management Inc 2016-09-30 252,175 Sold Some -487,098 $ -12,416 $ 6,427
Hutchin Hill Capital Lp 2016-09-30 0 Sold All -1,000,000 $ -25,490 $ 0
Emerald Acquisition Ltd 2016-09-30 48,525 Sold Some -1,048,422 $ -26,724 $ 1,236